createdAt,value
2016-11-26T00:00:27.593Z,4.27
2016-11-26T00:01:27.575Z,4.37
2016-11-26T00:02:27.951Z,4.34
2016-11-26T00:03:27.665Z,4.3
2016-11-26T00:04:27.629Z,4.34
2016-11-26T00:05:27.651Z,4.2
2016-11-26T00:06:27.662Z,4.23
2016-11-26T00:07:30.404Z,4.27
2016-11-26T00:08:42.626Z,4.23
2016-11-26T00:09:42.643Z,4.27
2016-11-26T00:10:27.738Z,4.34
2016-11-26T00:11:27.756Z,4.22
2016-11-26T00:12:27.772Z,4.27
2016-11-26T00:13:27.787Z,4.27
2016-11-26T00:14:27.815Z,4.23
2016-11-26T00:15:27.821Z,4.22
2016-11-26T00:16:27.846Z,4.22
2016-11-26T00:17:27.866Z,4.24
2016-11-26T00:18:27.885Z,4.22
2016-11-26T00:19:27.893Z,4.26
2016-11-26T00:20:27.912Z,4.16
2016-11-26T00:21:27.925Z,4.26
2016-11-26T00:23:27.965Z,4.27
2016-11-26T00:24:42.901Z,4.26
2016-11-26T00:25:28.009Z,4.27
2016-11-26T00:26:28.017Z,4.22
2016-11-26T00:27:28.034Z,4.27
2016-11-26T00:28:28.075Z,4.4
2016-11-26T00:29:28.069Z,4.34
2016-11-26T00:30:28.088Z,4.34
2016-11-26T00:31:28.102Z,4.26
2016-11-26T00:32:28.126Z,4.34
2016-11-26T00:33:28.139Z,4.34
2016-11-26T00:34:28.155Z,4.37
2016-11-26T00:35:28.176Z,4.33
2016-11-26T00:36:28.185Z,4.34
2016-11-26T00:37:28.208Z,4.36
2016-11-26T00:39:28.238Z,4.23
2016-11-26T00:40:28.264Z,4.27
2016-11-26T00:41:28.276Z,4.23
2016-11-26T00:42:28.292Z,4.27
2016-11-26T00:43:28.320Z,4.26
2016-11-26T00:44:28.335Z,4.26
2016-11-26T00:45:28.349Z,4.34
2016-11-26T00:46:28.368Z,4.32
2016-11-26T00:47:28.386Z,4.33
2016-11-26T00:48:28.401Z,4.23
2016-11-26T00:50:28.433Z,4.24
2016-11-26T00:51:28.452Z,4.3
2016-11-26T00:52:28.473Z,4.34
2016-11-26T00:53:43.413Z,4.36
2016-11-26T00:54:43.429Z,4.33
2016-11-26T00:55:28.525Z,4.37
2016-11-26T00:56:43.458Z,4.3
2016-11-26T00:57:28.557Z,4.36
2016-11-26T00:58:43.496Z,4.4
2016-11-26T00:59:28.593Z,4.34
2016-11-26T01:01:28.629Z,4.33
2016-11-26T01:03:28.661Z,4.5
2016-11-26T01:04:28.680Z,4.37
2016-11-26T01:05:28.696Z,4.36
2016-11-26T01:06:28.716Z,4.44
2016-11-26T01:07:28.728Z,4.4
2016-11-26T01:08:28.747Z,4.34
2016-11-26T01:09:43.690Z,4.3
2016-11-26T01:10:28.782Z,4.36
2016-11-26T01:11:28.799Z,4.33
2016-11-26T01:12:43.745Z,4.33
2016-11-26T01:13:28.836Z,4.36
2016-11-26T01:14:28.854Z,4.44
2016-11-26T01:15:28.876Z,4.42
2016-11-26T01:16:28.890Z,4.48
2016-11-26T01:17:28.937Z,4.51
2016-11-26T01:18:28.918Z,4.48
2016-11-26T01:19:28.937Z,4.45
2016-11-26T01:20:28.979Z,4.48
2016-11-26T01:21:28.973Z,4.48
2016-11-26T01:22:29.001Z,4.42
2016-11-26T01:23:29.041Z,4.41
2016-11-26T01:24:29.024Z,4.48
2016-11-26T01:25:29.046Z,4.44
2016-11-26T01:26:29.072Z,4.47
2016-11-26T01:27:29.088Z,4.47
2016-11-26T01:28:44.020Z,4.4
2016-11-26T01:29:29.111Z,4.51
2016-11-26T01:30:29.133Z,4.33
2016-11-26T01:31:29.147Z,4.36
2016-11-26T01:32:29.173Z,4.4
2016-11-26T01:33:29.181Z,4.34
2016-11-26T01:34:29.199Z,4.32
2016-11-26T01:35:29.220Z,4.48
2016-11-26T01:36:29.236Z,4.51
2016-11-26T01:37:29.257Z,4.48
2016-11-26T01:38:29.271Z,4.41
2016-11-26T01:39:29.291Z,4.34
2016-11-26T01:40:29.612Z,4.37
2016-11-26T01:41:44.250Z,4.33
2016-11-26T01:42:29.343Z,4.33
2016-11-26T01:43:44.281Z,4.29
2016-11-26T01:44:44.302Z,4.22
2016-11-26T01:45:29.398Z,4.27
2016-11-26T01:46:44.331Z,4.3
2016-11-26T01:47:29.431Z,4.23
2016-11-26T01:48:29.445Z,4.42
2016-11-26T01:49:29.464Z,4.37
2016-11-26T01:50:29.514Z,4.34
2016-11-26T01:51:29.497Z,4.32
2016-11-26T01:52:29.521Z,4.27
2016-11-26T01:53:29.535Z,4.3
2016-11-26T01:54:29.551Z,4.27
2016-11-26T01:55:29.575Z,4.3
2016-11-26T01:56:29.586Z,4.27
2016-11-26T01:58:44.546Z,4.2
2016-11-26T01:59:44.561Z,4.32
2016-11-26T02:00:44.577Z,4.32
2016-11-26T02:01:29.677Z,4.2
2016-11-26T02:02:29.689Z,4.3
2016-11-26T02:03:29.716Z,4.23
2016-11-26T02:04:29.724Z,4.18
2016-11-26T02:05:29.747Z,4.23
2016-11-26T02:06:29.759Z,4.24
2016-11-26T02:07:29.782Z,4.18
2016-11-26T02:08:29.792Z,4.15
2016-11-26T02:09:29.815Z,4.12
2016-11-26T02:10:29.831Z,4.09
2016-11-26T02:11:29.843Z,4.11
2016-11-26T02:12:29.973Z,4.11
2016-11-26T02:13:29.879Z,4.05
2016-11-26T02:14:29.903Z,4.18
2016-11-26T02:15:29.922Z,4.2
2016-11-26T02:17:29.954Z,4.15
2016-11-26T02:18:29.970Z,4.2
2016-11-26T02:19:30.001Z,4.29
2016-11-26T02:20:30.002Z,4.27
2016-11-26T02:21:30.019Z,4.22
2016-11-26T02:22:30.337Z,4.26
2016-11-26T02:23:30.057Z,4.34
2016-11-26T02:24:30.082Z,4.37
2016-11-26T02:25:30.101Z,4.4
2016-11-26T02:26:30.111Z,4.37
2016-11-26T02:27:30.122Z,4.33
2016-11-26T02:28:30.141Z,4.26
2016-11-26T02:29:30.159Z,4.36
2016-11-26T02:30:30.188Z,4.34
2016-11-26T02:31:45.119Z,4.33
2016-11-26T02:32:30.260Z,4.37
2016-11-26T02:33:30.231Z,4.37
2016-11-26T02:34:30.247Z,4.24
2016-11-26T02:35:30.266Z,4.27
2016-11-26T02:36:30.283Z,4.18
2016-11-26T02:37:30.302Z,4.23
2016-11-26T02:38:30.322Z,4.29
2016-11-26T02:39:30.338Z,4.11
2016-11-26T02:41:30.372Z,4.23
2016-11-26T02:42:30.385Z,4.18
2016-11-26T02:43:30.413Z,4.12
2016-11-26T02:44:30.415Z,4.06
2016-11-26T02:45:30.438Z,4.06
2016-11-26T02:46:30.457Z,4.16
2016-11-26T02:47:45.399Z,4.08
2016-11-26T02:48:45.444Z,4.06
2016-11-26T02:49:30.511Z,4.06
2016-11-26T02:50:30.529Z,4.04
2016-11-26T02:51:30.542Z,4.06
2016-11-26T02:52:30.558Z,4.05
2016-11-26T02:53:30.579Z,4.11
2016-11-26T02:54:30.598Z,4.05
2016-11-26T02:55:30.615Z,4.06
2016-11-26T02:56:30.624Z,4.11
2016-11-26T02:57:30.645Z,4.15
2016-11-26T02:58:30.710Z,4.12
2016-11-26T02:59:30.682Z,4.08
2016-11-26T03:01:45.641Z,4.15
2016-11-26T03:02:30.730Z,4.16
2016-11-26T03:03:45.675Z,4.16
2016-11-26T03:04:30.766Z,4.15
2016-11-26T03:05:30.788Z,4.22
2016-11-26T03:06:30.803Z,4.16
2016-11-26T03:07:31.118Z,4.12
2016-11-26T03:08:30.838Z,4.09
2016-11-26T03:09:30.859Z,4.15
2016-11-26T03:10:31.188Z,4.08
2016-11-26T03:11:30.893Z,4.08
2016-11-26T03:12:30.908Z,4.02
2016-11-26T03:13:30.920Z,4.04
2016-11-26T03:14:30.948Z,4.05
2016-11-26T03:15:30.952Z,4.16
2016-11-26T03:16:30.974Z,4.09
2016-11-26T03:17:31.002Z,4.04
2016-11-26T03:18:31.010Z,4.04
2016-11-26T03:19:45.954Z,4.08
2016-11-26T03:20:31.045Z,4.02
2016-11-26T03:21:31.060Z,4.06
2016-11-26T03:22:31.085Z,4.06
2016-11-26T03:23:31.101Z,4.08
2016-11-26T03:24:31.127Z,3.98
2016-11-26T03:25:31.158Z,4.02
2016-11-26T03:26:31.148Z,4.14
2016-11-26T03:27:31.169Z,4.02
2016-11-26T03:28:31.196Z,4.04
2016-11-26T03:29:31.202Z,3.98
2016-11-26T03:30:31.220Z,4.02
2016-11-26T03:32:31.259Z,3.93
2016-11-26T03:33:31.273Z,3.91
2016-11-26T03:34:46.209Z,4.04
2016-11-26T03:37:31.344Z,4
2016-11-26T03:38:31.363Z,4.06
2016-11-26T03:39:31.374Z,3.98
2016-11-26T03:40:31.391Z,3.79
2016-11-26T03:41:31.412Z,3.84
2016-11-26T03:42:31.424Z,3.83
2016-11-26T03:43:31.436Z,3.8
2016-11-26T03:44:31.464Z,3.84
2016-11-26T03:45:31.477Z,3.9
2016-11-26T03:46:31.500Z,3.86
2016-11-26T03:47:31.544Z,3.8
2016-11-26T03:48:46.451Z,3.79
2016-11-26T03:49:31.544Z,3.87
2016-11-26T03:50:31.567Z,3.88
2016-11-26T03:52:31.600Z,3.9
2016-11-26T03:53:31.621Z,3.9
2016-11-26T03:54:31.637Z,3.9
2016-11-26T03:55:31.645Z,4.06
2016-11-26T03:56:31.664Z,3.9
2016-11-26T03:57:31.687Z,3.91
2016-11-26T03:58:31.704Z,4
2016-11-26T03:59:31.720Z,3.98
2016-11-26T04:00:31.747Z,3.93
2016-11-26T04:01:31.758Z,3.93
2016-11-26T04:02:31.766Z,3.88
2016-11-26T04:03:31.782Z,3.9
2016-11-26T04:04:31.807Z,3.87
2016-11-26T04:05:32.116Z,3.9
2016-11-26T04:06:46.785Z,3.8
2016-11-26T04:07:31.873Z,3.79
2016-11-26T04:08:31.872Z,3.9
2016-11-26T04:10:31.911Z,3.94
2016-11-26T04:11:31.924Z,3.78
2016-11-26T04:12:31.942Z,3.86
2016-11-26T04:13:31.953Z,3.88
2016-11-26T04:14:31.976Z,3.88
2016-11-26T04:15:31.997Z,3.91
2016-11-26T04:16:32.017Z,4.05
2016-11-26T04:17:32.334Z,4.05
2016-11-26T04:18:32.044Z,4.05
2016-11-26T04:19:32.060Z,4.11
2016-11-26T04:20:47.005Z,4.2
2016-11-26T04:21:47.323Z,3.88
2016-11-26T04:22:47.088Z,3.8
2016-11-26T04:23:32.138Z,3.73
2016-11-26T04:24:32.155Z,3.8
2016-11-26T04:25:32.167Z,3.8
2016-11-26T04:26:32.181Z,3.84
2016-11-26T04:27:32.197Z,3.88
2016-11-26T04:28:32.218Z,3.9
2016-11-26T04:29:32.235Z,3.93
2016-11-26T04:30:32.259Z,3.87
2016-11-26T04:31:32.285Z,3.91
2016-11-26T04:32:32.291Z,3.96
2016-11-26T04:33:32.309Z,4
2016-11-26T04:34:32.317Z,3.91
2016-11-26T04:35:32.346Z,3.83
2016-11-26T04:36:32.653Z,3.84
2016-11-26T04:37:32.378Z,3.83
2016-11-26T04:38:47.358Z,3.86
2016-11-26T04:39:32.420Z,3.8
2016-11-26T04:40:32.424Z,3.78
2016-11-26T04:41:32.443Z,3.72
2016-11-26T04:42:32.460Z,3.73
2016-11-26T04:43:32.505Z,3.75
2016-11-26T04:44:32.490Z,3.73
2016-11-26T04:45:32.549Z,3.83
2016-11-26T04:46:32.527Z,3.7
2016-11-26T04:47:32.551Z,3.8
2016-11-26T04:48:32.563Z,3.73
2016-11-26T04:49:32.575Z,3.75
2016-11-26T04:50:32.621Z,3.66
2016-11-26T04:51:32.614Z,3.65
2016-11-26T04:52:47.553Z,3.84
2016-11-26T04:53:32.650Z,3.79
2016-11-26T04:54:47.585Z,3.79
2016-11-26T04:55:32.682Z,3.79
2016-11-26T04:57:32.713Z,3.83
2016-11-26T04:58:32.734Z,3.65
2016-11-26T04:59:32.756Z,3.73
2016-11-26T05:00:32.772Z,3.66
2016-11-26T05:01:32.789Z,3.69
2016-11-26T05:02:32.808Z,3.83
2016-11-26T05:03:47.747Z,3.76
2016-11-26T05:04:32.835Z,3.79
2016-11-26T05:05:32.853Z,3.73
2016-11-26T05:06:32.869Z,3.79
2016-11-26T05:07:32.919Z,3.73
2016-11-26T05:08:32.900Z,3.72
2016-11-26T05:09:47.846Z,3.79
2016-11-26T05:10:32.940Z,3.86
2016-11-26T05:11:32.954Z,3.79
2016-11-26T05:12:32.978Z,3.79
2016-11-26T05:13:32.990Z,3.79
2016-11-26T05:15:33.021Z,3.76
2016-11-26T05:16:33.046Z,3.83
2016-11-26T05:17:33.059Z,3.79
2016-11-26T05:18:33.078Z,3.73
2016-11-26T05:19:33.093Z,3.73
2016-11-26T05:20:33.107Z,3.75
2016-11-26T05:21:33.434Z,3.83
2016-11-26T05:22:33.146Z,3.68
2016-11-26T05:23:48.088Z,3.65
2016-11-26T05:24:33.185Z,3.69
2016-11-26T05:25:33.211Z,3.76
2016-11-26T05:26:33.208Z,3.75
2016-11-26T05:27:33.231Z,3.73
2016-11-26T05:29:33.261Z,3.75
2016-11-26T05:30:33.284Z,3.76
2016-11-26T05:31:33.325Z,3.73
2016-11-26T05:32:33.336Z,3.7
2016-11-26T05:33:33.382Z,3.75
2016-11-26T05:34:33.352Z,3.79
2016-11-26T05:35:33.372Z,3.69
2016-11-26T05:36:33.386Z,3.61
2016-11-26T05:37:33.399Z,3.65
2016-11-26T05:38:33.418Z,3.68
2016-11-26T05:39:33.435Z,3.69
2016-11-26T05:40:33.454Z,3.7
2016-11-26T05:41:48.394Z,3.61
2016-11-26T05:42:33.488Z,3.66
2016-11-26T05:44:33.521Z,3.61
2016-11-26T05:45:33.543Z,3.66
2016-11-26T05:46:33.552Z,3.61
2016-11-26T05:47:33.573Z,3.62
2016-11-26T05:48:33.588Z,3.57
2016-11-26T05:49:33.662Z,3.54
2016-11-26T05:50:33.621Z,3.48
2016-11-26T05:51:33.640Z,3.52
2016-11-26T05:52:33.660Z,3.51
2016-11-26T05:54:48.620Z,3.43
2016-11-26T05:55:33.713Z,3.42
2016-11-26T05:56:33.722Z,3.31
2016-11-26T05:57:48.667Z,3.51
2016-11-26T05:58:48.681Z,3.51
2016-11-26T05:59:48.696Z,3.55
2016-11-26T06:00:33.793Z,3.5
2016-11-26T06:01:33.807Z,3.51
2016-11-26T06:02:33.827Z,3.43
2016-11-26T06:03:33.841Z,3.47
2016-11-26T06:04:33.863Z,3.32
2016-11-26T06:05:33.879Z,3.33
2016-11-26T06:06:33.894Z,3.36
2016-11-26T06:08:33.927Z,3.43
2016-11-26T06:09:33.942Z,3.32
2016-11-26T06:10:34.261Z,3.26
2016-11-26T06:11:48.904Z,3.33
2016-11-26T06:13:48.939Z,3.43
2016-11-26T06:14:34.028Z,3.4
2016-11-26T06:15:34.047Z,3.33
2016-11-26T06:16:34.059Z,3.39
2016-11-26T06:17:34.077Z,3.42
2016-11-26T06:18:34.098Z,3.35
2016-11-26T06:19:34.112Z,3.42
2016-11-26T06:20:34.132Z,3.35
2016-11-26T06:21:34.149Z,3.31
2016-11-26T06:22:34.180Z,3.26
2016-11-26T06:23:34.184Z,3.28
2016-11-26T06:24:34.192Z,3.33
2016-11-26T06:25:34.213Z,3.36
2016-11-26T06:26:34.244Z,3.33
2016-11-26T06:27:34.251Z,3.33
2016-11-26T06:28:49.189Z,3.33
2016-11-26T06:29:49.205Z,3.42
2016-11-26T06:30:34.298Z,3.5
2016-11-26T06:31:34.317Z,3.33
2016-11-26T06:32:34.332Z,3.33
2016-11-26T06:33:34.355Z,3.39
2016-11-26T06:34:34.368Z,3.4
2016-11-26T06:35:34.387Z,3.39
2016-11-26T06:36:34.397Z,3.42
2016-11-26T06:37:34.422Z,3.42
2016-11-26T06:38:34.436Z,3.33
2016-11-26T06:39:34.451Z,3.31
2016-11-26T06:41:34.824Z,3.2
2016-11-26T06:42:34.503Z,3.23
2016-11-26T06:43:49.442Z,3.21
2016-11-26T06:44:49.459Z,3.2
2016-11-26T06:45:34.553Z,3.14
2016-11-26T06:46:34.575Z,3.32
2016-11-26T06:47:49.507Z,3.35
2016-11-26T06:48:34.605Z,3.35
2016-11-26T06:49:34.619Z,3.31
2016-11-26T06:50:34.635Z,3.42
2016-11-26T06:51:34.650Z,3.48
2016-11-26T06:53:34.685Z,3.5
2016-11-26T06:54:34.705Z,3.54
2016-11-26T06:55:34.721Z,3.48
2016-11-26T06:56:34.735Z,3.36
2016-11-26T06:57:34.757Z,3.48
2016-11-26T06:58:49.694Z,3.33
2016-11-26T06:59:34.784Z,3.32
2016-11-26T07:00:34.804Z,3.23
2016-11-26T07:02:34.845Z,3.23
2016-11-26T07:03:34.858Z,3.31
2016-11-26T07:04:49.790Z,3.35
2016-11-26T07:05:34.886Z,3.43
2016-11-26T07:06:34.906Z,3.29
2016-11-26T07:07:34.927Z,3.21
2016-11-26T07:08:34.943Z,3.18
2016-11-26T07:09:34.958Z,3.17
2016-11-26T07:10:35.027Z,3.21
2016-11-26T07:11:34.987Z,3.29
2016-11-26T07:12:35.004Z,3.23
2016-11-26T07:13:35.025Z,3.2
2016-11-26T07:14:35.041Z,3.23
2016-11-26T07:15:35.051Z,3.26
2016-11-26T07:16:49.995Z,3.32
2016-11-26T07:17:50.012Z,3.29
2016-11-26T07:19:35.122Z,3.35
2016-11-26T07:20:35.138Z,3.32
2016-11-26T07:21:35.156Z,3.4
2016-11-26T07:22:35.170Z,3.4
2016-11-26T07:23:35.188Z,3.35
2016-11-26T07:24:35.209Z,3.35
2016-11-26T07:25:35.529Z,3.32
2016-11-26T07:26:35.238Z,3.35
2016-11-26T07:27:35.254Z,3.29
2016-11-26T07:28:35.277Z,3.24
2016-11-26T07:30:50.233Z,3.02
2016-11-26T07:31:50.248Z,3.08
2016-11-26T07:32:50.267Z,3.17
2016-11-26T07:33:35.358Z,3.15
2016-11-26T07:34:35.373Z,3.17
2016-11-26T07:35:35.394Z,3.15
2016-11-26T07:36:35.410Z,3.2
2016-11-26T07:37:35.426Z,3.18
2016-11-26T07:38:35.448Z,3.24
2016-11-26T07:39:35.458Z,3.31
2016-11-26T07:40:35.477Z,3.31
2016-11-26T07:41:35.496Z,3.29
2016-11-26T07:42:35.511Z,3.15
2016-11-26T07:43:35.527Z,3.18
2016-11-26T07:44:35.548Z,3.2
2016-11-26T07:45:35.557Z,3.23
2016-11-26T07:46:35.573Z,3.17
2016-11-26T07:47:35.599Z,3.14
2016-11-26T07:48:50.527Z,3.14
2016-11-26T07:49:35.622Z,3.17
2016-11-26T07:50:35.642Z,3.13
2016-11-26T07:51:35.661Z,3.2
2016-11-26T07:52:35.684Z,3.14
2016-11-26T07:53:35.696Z,3.18
2016-11-26T07:54:35.708Z,3.17
2016-11-26T07:55:35.758Z,3.18
2016-11-26T07:56:35.740Z,3.15
2016-11-26T07:57:35.814Z,3.21
2016-11-26T07:58:35.785Z,3.14
2016-11-26T07:59:35.792Z,3.17
2016-11-26T08:00:35.807Z,3.17
2016-11-26T08:01:35.826Z,3.17
2016-11-26T08:02:35.895Z,3.2
2016-11-26T08:03:50.783Z,3.14
2016-11-26T08:04:50.798Z,3.14
2016-11-26T08:05:35.894Z,3.2
2016-11-26T08:06:35.938Z,3.03
2016-11-26T08:07:35.931Z,3.17
2016-11-26T08:08:35.942Z,3.18
2016-11-26T08:09:35.959Z,3.17
2016-11-26T08:10:35.972Z,3.14
2016-11-26T08:11:35.995Z,3.18
2016-11-26T08:12:36.008Z,3.2
2016-11-26T08:13:36.029Z,3.2
2016-11-26T08:14:36.041Z,3.13
2016-11-26T08:15:36.058Z,3.17
2016-11-26T08:16:36.083Z,3.17
2016-11-26T08:17:36.099Z,3.13
2016-11-26T08:18:36.108Z,3.17
2016-11-26T08:19:51.052Z,3.21
2016-11-26T08:20:36.152Z,3.21
2016-11-26T08:21:36.163Z,3.23
2016-11-26T08:22:36.187Z,3.15
2016-11-26T08:23:51.146Z,3.26
2016-11-26T08:24:36.214Z,3.32
2016-11-26T08:25:36.231Z,3.33
2016-11-26T08:26:36.300Z,3.26
2016-11-26T08:27:36.264Z,3.17
2016-11-26T08:28:36.280Z,3.17
2016-11-26T08:29:36.300Z,3.17
2016-11-26T08:30:36.307Z,3.21
2016-11-26T08:31:36.332Z,3.39
2016-11-26T08:32:36.344Z,3.48
2016-11-26T08:33:36.364Z,3.35
2016-11-26T08:34:36.435Z,3.4
2016-11-26T08:35:36.398Z,3.39
2016-11-26T08:37:36.431Z,3.13
2016-11-26T08:39:36.467Z,3.21
2016-11-26T08:40:36.481Z,3.2
2016-11-26T08:41:36.495Z,3.28
2016-11-26T08:42:36.517Z,3.26
2016-11-26T08:43:36.560Z,3.4
2016-11-26T08:44:36.605Z,3.47
2016-11-26T08:45:36.563Z,3.42
2016-11-26T08:46:36.581Z,3.52
2016-11-26T08:47:36.628Z,3.5
2016-11-26T08:48:36.621Z,3.51
2016-11-26T08:49:51.556Z,3.48
2016-11-26T08:50:36.667Z,3.4
2016-11-26T08:51:51.589Z,3.47
2016-11-26T08:52:51.603Z,3.43
2016-11-26T08:53:36.703Z,3.43
2016-11-26T08:54:36.720Z,3.54
2016-11-26T08:55:36.736Z,3.62
2016-11-26T08:56:36.752Z,3.6
2016-11-26T08:57:36.770Z,3.72
2016-11-26T08:58:36.786Z,3.62
2016-11-26T08:59:36.830Z,3.62
2016-11-26T09:00:36.815Z,3.61
2016-11-26T09:01:36.837Z,3.58
2016-11-26T09:02:36.856Z,3.6
2016-11-26T09:03:36.887Z,3.58
2016-11-26T09:04:36.887Z,3.72
2016-11-26T09:05:36.911Z,3.6
2016-11-26T09:06:36.928Z,3.72
2016-11-26T09:07:51.857Z,3.66
2016-11-26T09:08:36.952Z,3.73
2016-11-26T09:09:36.976Z,3.65
2016-11-26T09:10:36.994Z,3.6
2016-11-26T09:11:37.006Z,3.54
2016-11-26T09:12:37.022Z,3.58
2016-11-26T09:13:37.034Z,3.5
2016-11-26T09:14:37.061Z,3.36
2016-11-26T09:15:37.074Z,3.4
2016-11-26T09:16:37.109Z,3.47
2016-11-26T09:17:37.108Z,3.48
2016-11-26T09:18:37.115Z,3.57
2016-11-26T09:19:37.140Z,3.55
2016-11-26T09:20:37.154Z,3.45
2016-11-26T09:21:52.098Z,3.29
2016-11-26T09:22:37.195Z,3.29
2016-11-26T09:23:52.130Z,3.31
2016-11-26T09:25:52.160Z,3.26
2016-11-26T09:26:37.257Z,3.31
2016-11-26T09:27:37.276Z,3.35
2016-11-26T09:28:37.296Z,3.39
2016-11-26T09:29:37.314Z,3.5
2016-11-26T09:30:37.327Z,3.51
2016-11-26T09:31:37.340Z,3.54
2016-11-26T09:32:37.361Z,3.61
2016-11-26T09:33:37.381Z,3.6
2016-11-26T09:34:37.394Z,3.6
2016-11-26T09:35:52.335Z,3.62
2016-11-26T09:36:52.351Z,3.65
2016-11-26T09:37:52.367Z,3.58
2016-11-26T09:39:52.397Z,3.47
2016-11-26T09:40:37.490Z,3.4
2016-11-26T09:41:37.509Z,3.5
2016-11-26T09:42:37.534Z,3.54
2016-11-26T09:43:37.541Z,3.47
2016-11-26T09:44:37.559Z,3.35
2016-11-26T09:45:37.584Z,3.33
2016-11-26T09:46:37.599Z,3.45
2016-11-26T09:47:37.611Z,3.39
2016-11-26T09:48:37.629Z,3.5
2016-11-26T09:49:37.646Z,3.54
2016-11-26T09:51:37.682Z,3.48
2016-11-26T09:52:37.904Z,3.54
2016-11-26T09:53:37.713Z,3.48
2016-11-26T09:54:52.655Z,3.48
2016-11-26T09:55:37.753Z,3.48
2016-11-26T09:56:37.766Z,3.48
2016-11-26T09:58:37.804Z,3.48
2016-11-26T09:59:37.820Z,3.57
2016-11-26T10:00:37.831Z,3.61
2016-11-26T10:01:37.852Z,3.58
2016-11-26T10:02:37.865Z,3.68
2016-11-26T10:03:37.881Z,3.7
2016-11-26T10:04:37.905Z,3.66
2016-11-26T10:05:37.920Z,3.65
2016-11-26T10:06:37.945Z,3.69
2016-11-26T10:09:37.988Z,3.75
2016-11-26T10:10:38.008Z,3.72
2016-11-26T10:11:38.025Z,3.75
2016-11-26T10:12:38.034Z,3.6
2016-11-26T10:13:38.058Z,3.7
2016-11-26T10:14:38.067Z,3.76
2016-11-26T10:15:38.116Z,3.78
2016-11-26T10:16:38.107Z,3.61
2016-11-26T10:17:38.127Z,3.57
2016-11-26T10:18:38.138Z,3.75
2016-11-26T10:19:38.168Z,3.58
2016-11-26T10:20:38.179Z,3.62
2016-11-26T10:21:38.194Z,3.58
2016-11-26T10:22:38.211Z,3.62
2016-11-26T10:23:38.227Z,3.51
2016-11-26T10:24:53.167Z,3.55
2016-11-26T10:25:38.259Z,3.62
2016-11-26T10:26:53.201Z,3.62
2016-11-26T10:27:38.298Z,3.55
2016-11-26T10:28:38.321Z,3.62
2016-11-26T10:29:53.250Z,3.75
2016-11-26T10:30:38.355Z,3.73
2016-11-26T10:31:38.367Z,3.76
2016-11-26T10:32:38.385Z,3.78
2016-11-26T10:33:38.397Z,3.83
2016-11-26T10:34:38.414Z,3.75
2016-11-26T10:35:38.433Z,3.66
2016-11-26T10:36:38.451Z,3.76
2016-11-26T10:37:38.467Z,3.62
2016-11-26T10:38:38.485Z,3.58
2016-11-26T10:39:38.505Z,3.57
2016-11-26T10:40:53.441Z,3.6
2016-11-26T10:41:38.537Z,3.75
2016-11-26T10:42:53.472Z,3.6
2016-11-26T10:43:38.567Z,3.62
2016-11-26T10:45:38.605Z,3.72
2016-11-26T10:46:38.621Z,3.55
2016-11-26T10:47:38.638Z,3.54
2016-11-26T10:48:38.655Z,3.55
2016-11-26T10:49:38.967Z,3.54
2016-11-26T10:50:38.691Z,3.58
2016-11-26T10:51:38.707Z,3.58
2016-11-26T10:52:38.721Z,3.62
2016-11-26T10:53:38.735Z,3.65
2016-11-26T10:54:38.763Z,3.6
2016-11-26T10:55:38.771Z,3.66
2016-11-26T10:56:53.716Z,3.54
2016-11-26T10:57:38.836Z,3.61
2016-11-26T10:58:53.753Z,3.45
2016-11-26T10:59:38.848Z,3.5
2016-11-26T11:00:38.860Z,3.51
2016-11-26T11:01:38.877Z,3.45
2016-11-26T11:02:38.895Z,3.43
2016-11-26T11:03:38.916Z,3.42
2016-11-26T11:04:38.922Z,3.58
2016-11-26T11:05:38.939Z,3.79
2016-11-26T11:06:38.957Z,3.8
2016-11-26T11:07:38.973Z,3.79
2016-11-26T11:08:38.996Z,3.78
2016-11-26T11:09:39.018Z,3.7
2016-11-26T11:12:39.062Z,3.62
2016-11-26T11:13:54.005Z,3.65
2016-11-26T11:14:54.043Z,3.73
2016-11-26T11:15:39.142Z,3.7
2016-11-26T11:16:39.135Z,3.73
2016-11-26T11:17:39.146Z,3.9
2016-11-26T11:18:39.163Z,3.9
2016-11-26T11:19:39.189Z,3.96
2016-11-26T11:20:39.199Z,4.09
2016-11-26T11:21:39.220Z,4.11
2016-11-26T11:22:39.232Z,3.98
2016-11-26T11:23:39.252Z,4
2016-11-26T11:24:39.271Z,4.02
2016-11-26T11:25:39.286Z,3.97
2016-11-26T11:26:54.230Z,4
2016-11-26T11:27:39.317Z,3.9
2016-11-26T11:28:39.335Z,3.87
2016-11-26T11:29:54.279Z,3.91
2016-11-26T11:30:39.379Z,3.93
2016-11-26T11:31:39.385Z,3.84
2016-11-26T11:32:39.407Z,3.75
2016-11-26T11:33:39.431Z,3.75
2016-11-26T11:34:39.442Z,3.8
2016-11-26T11:35:39.488Z,3.94
2016-11-26T11:36:39.475Z,3.91
2016-11-26T11:37:39.496Z,3.91
2016-11-26T11:38:39.518Z,3.86
2016-11-26T11:40:39.547Z,3.87
2016-11-26T11:41:39.561Z,4.02
2016-11-26T11:42:39.586Z,3.94
2016-11-26T11:43:54.520Z,4.12
2016-11-26T11:44:39.619Z,4.04
2016-11-26T11:45:39.634Z,3.96
2016-11-26T11:46:39.649Z,4.05
2016-11-26T11:47:39.664Z,3.97
2016-11-26T11:49:39.704Z,4.16
2016-11-26T11:50:39.718Z,4.09
2016-11-26T11:51:39.735Z,4.2
2016-11-26T11:52:39.754Z,4.23
2016-11-26T11:53:39.767Z,4.22
2016-11-26T11:54:39.786Z,4.4
2016-11-26T11:55:39.802Z,4.16
2016-11-26T11:56:39.871Z,4.12
2016-11-26T11:57:39.832Z,4.02
2016-11-26T11:58:39.852Z,4.11
2016-11-26T11:59:39.877Z,4
2016-11-26T12:00:39.938Z,4
2016-11-26T12:01:54.831Z,3.87
2016-11-26T12:02:39.917Z,3.88
2016-11-26T12:03:39.942Z,3.9
2016-11-26T12:04:39.956Z,3.86
2016-11-26T12:05:39.978Z,3.79
2016-11-26T12:06:39.992Z,3.9
2016-11-26T12:07:40.015Z,3.87
2016-11-26T12:08:40.029Z,3.91
2016-11-26T12:09:40.044Z,3.88
2016-11-26T12:10:40.058Z,3.83
2016-11-26T12:11:40.078Z,3.91
2016-11-26T12:12:40.092Z,3.87
2016-11-26T12:13:40.105Z,3.96
2016-11-26T12:14:40.123Z,3.88
2016-11-26T12:15:40.146Z,3.84
2016-11-26T12:16:40.159Z,3.83
2016-11-26T12:17:55.106Z,3.68
2016-11-26T12:18:40.198Z,3.69
2016-11-26T12:19:40.218Z,3.79
2016-11-26T12:20:40.236Z,3.78
2016-11-26T12:21:40.250Z,3.72
2016-11-26T12:22:40.265Z,3.54
2016-11-26T12:23:40.280Z,3.61
2016-11-26T12:24:40.297Z,3.73
2016-11-26T12:25:40.325Z,3.57
2016-11-26T12:26:40.332Z,3.69
2016-11-26T12:27:40.354Z,3.61
2016-11-26T12:28:40.371Z,3.58
2016-11-26T12:29:40.385Z,3.58
2016-11-26T12:30:40.403Z,3.62
2016-11-26T12:31:40.418Z,3.7
2016-11-26T12:32:40.463Z,3.8
2016-11-26T12:33:55.407Z,3.83
2016-11-26T12:34:40.466Z,3.91
2016-11-26T12:35:40.494Z,3.84
2016-11-26T12:37:40.521Z,3.79
2016-11-26T12:38:40.539Z,3.84
2016-11-26T12:39:40.859Z,3.84
2016-11-26T12:40:40.572Z,3.91
2016-11-26T12:41:40.598Z,3.9
2016-11-26T12:42:40.610Z,3.84
2016-11-26T12:43:40.628Z,3.79
2016-11-26T12:44:40.643Z,3.88
2016-11-26T12:45:40.661Z,3.93
2016-11-26T12:46:40.683Z,3.93
2016-11-26T12:47:55.621Z,3.84
2016-11-26T12:49:55.652Z,3.84
2016-11-26T12:50:40.754Z,3.83
2016-11-26T12:51:40.766Z,3.9
2016-11-26T12:52:40.785Z,3.8
2016-11-26T12:53:40.799Z,3.73
2016-11-26T12:54:40.812Z,3.68
2016-11-26T12:55:40.827Z,3.6
2016-11-26T12:56:40.854Z,3.65
2016-11-26T12:57:40.867Z,3.61
2016-11-26T12:58:40.883Z,3.58
2016-11-26T12:59:40.901Z,3.7
2016-11-26T13:00:40.919Z,3.61
2016-11-26T13:02:55.879Z,3.73
2016-11-26T13:03:40.968Z,3.86
2016-11-26T13:04:55.909Z,3.84
2016-11-26T13:05:55.926Z,3.78
2016-11-26T13:06:41.019Z,3.83
2016-11-26T13:07:41.048Z,3.69
2016-11-26T13:08:41.060Z,3.73
2016-11-26T13:09:41.073Z,3.68
2016-11-26T13:10:41.087Z,3.73
2016-11-26T13:11:41.109Z,3.66
2016-11-26T13:12:41.121Z,3.73
2016-11-26T13:13:41.176Z,3.83
2016-11-26T13:14:41.156Z,3.84
2016-11-26T13:15:41.172Z,3.76
2016-11-26T13:16:41.192Z,3.75
2016-11-26T13:17:41.206Z,3.68
2016-11-26T13:18:41.222Z,3.73
2016-11-26T13:19:56.167Z,3.58
2016-11-26T13:20:41.259Z,3.61
2016-11-26T13:21:41.275Z,3.68
2016-11-26T13:22:41.293Z,3.79
2016-11-26T13:23:41.312Z,3.73
2016-11-26T13:24:41.322Z,3.76
2016-11-26T13:25:41.345Z,3.84
2016-11-26T13:26:41.363Z,3.62
2016-11-26T13:27:41.378Z,3.5
2016-11-26T13:28:41.397Z,3.43
2016-11-26T13:29:41.411Z,3.48
2016-11-26T13:30:41.436Z,3.6
2016-11-26T13:32:41.463Z,3.58
2016-11-26T13:33:41.503Z,3.55
2016-11-26T13:35:41.511Z,3.57
2016-11-26T13:36:56.460Z,3.58
2016-11-26T13:37:56.472Z,3.73
2016-11-26T13:39:41.583Z,3.61
2016-11-26T13:40:41.602Z,3.61
2016-11-26T13:41:41.619Z,3.75
2016-11-26T13:42:41.637Z,3.66
2016-11-26T13:43:41.650Z,3.7
2016-11-26T13:44:41.670Z,3.75
2016-11-26T13:45:41.689Z,3.62
2016-11-26T13:46:41.703Z,3.61
2016-11-26T13:47:41.718Z,3.57
2016-11-26T13:48:41.737Z,3.62
2016-11-26T13:49:41.754Z,3.61
2016-11-26T13:50:41.773Z,3.52
2016-11-26T13:51:41.791Z,3.61
2016-11-26T13:52:56.729Z,3.42
2016-11-26T13:54:41.837Z,3.39
2016-11-26T13:55:41.857Z,3.35
2016-11-26T13:56:41.874Z,3.48
2016-11-26T13:57:41.892Z,3.43
2016-11-26T13:58:41.910Z,3.52
2016-11-26T13:59:41.923Z,3.48
2016-11-26T14:00:41.942Z,3.42
2016-11-26T14:01:42.006Z,3.4
2016-11-26T14:02:41.976Z,3.43
2016-11-26T14:03:41.994Z,3.45
2016-11-26T14:04:42.007Z,3.42
2016-11-26T14:05:42.029Z,3.43
2016-11-26T14:06:42.089Z,3.35
2016-11-26T14:07:42.061Z,3.31
2016-11-26T14:08:57.001Z,3.31